KSSI/SSI METAR and TAF weather

Enter ICAO airport designator
Station Type Date Time Source
KSSI METAR 2019/08/25 12:53 UTC NOAA

KSSI 251253Z AUTO 01010KT 10SM BKN013 27/23 A3000 RMK AO2 RAB03E18 SLP162 P0000 T02670233


Station Type Date Time Source
KSSI Decoded METAR 2019/08/25 12:53 UTC NOAA

Station name not available
Aug 25, 2019 - 08:53 AM EDT / 2019.08.25 1253 UTC
Wind: from the N (010 degrees) at 12 MPH (10 KT):0
Visibility: 10 mile(s):0
Sky conditions: mostly cloudy
Precipitation last hour: A trace
Temperature: 80.1 F (26.7 C)
Dew Point: 73.9 F (23.3 C)
Relative Humidity: 81%
Pressure (altimeter): 30 in. Hg (1015 hPa)
ob: KSSI 251253Z AUTO 01010KT 10SM BKN013 27/23 A3000 RMK AO2 RAB03E18 SLP162 P0000 T02670233
cycle: 13

Station Type Date Time Source
KSSI TAF 2019/08/25 12:28 UTC NOAA

TAF KSSI 251126Z 2512/2612 02010KT P6SM VCSH SCT008 BKN015 OVC035
TEMPO 2512/2514 4SM SHRA BKN015
FM251400 04010KT P6SM VCSH BKN020
FM252300 04008KT P6SM SCT025 BKN250

Example: see airport list